Time;durP1;ratioP1;P1;durP2;ratioP2;P2;SDS_P1;SDS_P2;PMS_P1;PMS_P2;Temp;Humidity;BMP_temperature;BMP_pressure;BME280_temperature;BME280_humidity;BME280_pressure;Samples;Min_cycle;Max_cycle;Signal;HPM_P1;HPM_P2
2021/09/19 00:02:00;;;;;;;;;8.25;7.75;;;;;20.85;64.79;100893.16;4892420;28;45520;-58
2021/09/19 00:04:25;;;;;;;;;7.50;7.50;;;;;20.80;64.67;100896.31;4892430;29;45670;-59
2021/09/19 00:06:51;;;;;;;;;6.50;6.50;;;;;20.78;64.85;100890.28;4876670;29;45474;-58
2021/09/19 00:09:16;;;;;;;;;6.50;6.25;;;;;20.76;64.71;100897.59;4894842;29;45555;-58
2021/09/19 00:11:44;;;;;;;;;5.00;5.00;;;;;20.74;64.51;100894.25;4892986;29;45352;-56
2021/09/19 00:14:10;;;;;;;;;7.25;5.00;;;;;20.74;64.74;100896.09;4893317;29;45434;-50
2021/09/19 00:16:36;;;;;;;;;5.75;5.75;;;;;20.74;64.77;100885.38;4892865;29;45312;-52
2021/09/19 00:19:01;;;;;;;;;8.25;7.25;;;;;20.74;64.88;100878.19;4890561;29;45404;-56
2021/09/19 00:21:27;;;;;;;;;5.00;5.00;;;;;20.73;64.74;100875.66;4893164;29;45546;-54
2021/09/19 00:23:52;;;;;;;;;6.00;6.00;;;;;20.72;64.84;100871.31;4893101;29;45577;-56
2021/09/19 00:26:18;;;;;;;;;6.75;6.75;;;;;20.70;64.95;100865.28;4893952;29;45378;-56
2021/09/19 00:28:43;;;;;;;;;10.25;7.50;;;;;20.68;64.75;100868.09;4894334;29;45542;-55
2021/09/19 00:31:09;;;;;;;;;6.75;6.75;;;;;20.68;64.80;100867.25;4896207;29;45410;-54
2021/09/19 00:33:34;;;;;;;;;8.25;7.75;;;;;20.66;65.08;100861.22;4892223;29;45509;-56
2021/09/19 00:36:00;;;;;;;;;7.00;7.00;;;;;20.65;64.87;100860.38;4895929;29;45528;-55
2021/09/19 00:38:25;;;;;;;;;5.50;5.50;;;;;20.66;65.09;100858.53;4892026;29;45308;-55
2021/09/19 00:40:51;;;;;;;;;6.00;6.00;;;;;20.67;65.08;100860.22;4895507;29;45448;-56
2021/09/19 00:43:16;;;;;;;;;7.25;7.25;;;;;20.66;64.77;100859.38;4893103;28;45284;-56
2021/09/19 00:45:42;;;;;;;;;8.00;6.00;;;;;20.65;64.89;100855.00;4895355;29;46039;-55
2021/09/19 00:48:07;;;;;;;;;8.00;7.00;;;;;20.65;65.16;100856.84;4898641;29;45219;-54
2021/09/19 00:50:33;;;;;;;;;6.00;5.00;;;;;20.64;65.22;100847.97;4895291;29;45222;-55
2021/09/19 00:53:00;;;;;;;;;6.00;4.00;;;;;20.62;65.13;100848.16;4895466;28;45476;-56
2021/09/19 00:55:26;;;;;;;;;6.50;6.50;;;;;20.63;64.80;100851.66;4896442;29;45345;-56
2021/09/19 00:57:53;;;;;;;;;5.50;5.50;;;;;20.64;64.98;100856.00;4899416;29;45253;-53
2021/09/19 01:00:26;;;;;;;;;8.00;7.00;;;;;20.65;65.36;100851.50;4898507;29;45384;-54
2021/09/19 01:02:53;;;;;;;;;6.00;5.00;;;;;20.65;65.23;100852.34;4878794;29;45628;-54
2021/09/19 01:05:20;;;;;;;;;6.75;6.75;;;;;20.67;65.35;100857.53;4899818;29;46352;-53
2021/09/19 01:07:48;;;;;;;;;5.75;5.75;;;;;20.71;65.44;100856.25;4896105;29;45334;-56
2021/09/19 01:10:15;;;;;;;;;8.00;6.00;;;;;20.68;65.33;100854.69;4894994;29;45261;-52
2021/09/19 01:12:41;;;;;;;;;9.75;8.00;;;;;20.63;65.28;100843.63;4897832;28;45372;-53
2021/09/19 01:15:08;;;;;;;;;8.75;6.00;;;;;20.58;65.82;100846.75;4896257;29;45419;-54
2021/09/19 01:17:36;;;;;;;;;8.25;7.25;;;;;20.56;65.87;100840.72;4898663;29;45495;-56
2021/09/19 01:20:03;;;;;;;;;6.00;6.00;;;;;20.57;65.61;100839.72;4897861;29;45294;-55
2021/09/19 01:22:35;;;;;;;;;8.75;6.75;;;;;20.59;65.72;100851.09;4899407;29;45243;-55
2021/09/19 01:25:05;;;;;;;;;8.50;7.75;;;;;20.59;66.15;100843.06;4895581;29;45581;-55
2021/09/19 01:27:31;;;;;;;;;10.00;7.00;;;;;20.58;66.08;100844.06;4897699;29;45546;-55
2021/09/19 01:29:56;;;;;;;;;10.75;8.75;;;;;20.55;66.20;100838.19;4881431;29;45472;-56
2021/09/19 01:32:22;;;;;;;;;7.00;5.75;;;;;20.53;65.84;100840.16;4897466;29;45665;-56
2021/09/19 01:34:52;;;;;;;;;6.75;5.75;;;;;20.52;66.01;100839.31;4895557;29;45562;-55
2021/09/19 01:37:19;;;;;;;;;9.25;7.50;;;;;20.53;66.08;100832.97;4898985;29;45402;-57
2021/09/19 01:39:45;;;;;;;;;6.75;6.75;;;;;20.52;66.10;100833.13;4894775;29;45513;-56
2021/09/19 01:42:12;;;;;;;;;8.25;8.00;;;;;20.51;66.24;100834.13;4898204;29;45246;-56
2021/09/19 01:44:39;;;;;;;;;8.25;8.25;;;;;20.51;66.12;100834.97;4898249;28;45413;-56
2021/09/19 01:47:06;;;;;;;;;9.25;9.00;;;;;20.54;66.10;100831.16;4895101;29;45284;-55
2021/09/19 01:49:32;;;;;;;;;8.50;6.50;;;;;20.55;65.90;100833.69;4896726;29;45284;-55
2021/09/19 01:51:58;;;;;;;;;9.75;8.00;;;;;20.56;65.96;100830.00;4897375;29;45294;-55
2021/09/19 01:54:24;;;;;;;;;9.50;8.75;;;;;20.55;65.74;100840.88;4898953;29;45359;-55
2021/09/19 01:56:49;;;;;;;;;10.75;8.75;;;;;20.54;65.70;100833.84;4894370;29;45421;-55
2021/09/19 01:59:15;;;;;;;;;7.50;7.00;;;;;20.52;65.90;100833.13;4891957;29;45485;-56
2021/09/19 02:01:40;;;;;;;;;7.50;7.50;;;;;20.53;66.02;100840.16;4899187;29;45518;-54
2021/09/19 02:04:06;;;;;;;;;7.00;7.00;;;;;20.50;65.80;100841.31;4896910;29;46095;-54
2021/09/19 02:06:32;;;;;;;;;10.50;9.50;;;;;20.47;65.81;100841.63;4894834;29;45427;-56
2021/09/19 02:08:57;;;;;;;;;8.25;8.25;;;;;20.46;65.77;100848.00;4895444;29;45550;-54
2021/09/19 02:11:22;;;;;;;;;11.00;9.00;;;;;20.42;66.15;100843.88;4894540;29;45536;-54
2021/09/19 02:13:49;;;;;;;;;12.00;10.00;;;;;20.38;66.03;100833.63;4898006;29;45971;-55
2021/09/19 02:16:20;;;;;;;;;8.25;8.25;;;;;20.34;66.40;100833.94;4898077;29;45324;-56
2021/09/19 02:18:46;;;;;;;;;8.50;8.00;;;;;20.32;66.12;100827.91;4896544;29;45371;-54
2021/09/19 02:21:12;;;;;;;;;10.50;8.50;;;;;20.29;66.80;100827.34;4896299;29;45157;-56
2021/09/19 02:23:38;;;;;;;;;10.00;10.00;;;;;20.28;66.43;100823.84;4896569;29;46033;-55
2021/09/19 02:26:03;;;;;;;;;9.50;9.50;;;;;20.28;66.45;100821.16;4896360;29;45348;-56
2021/09/19 02:28:29;;;;;;;;;9.75;8.00;;;;;20.24;66.87;100813.63;4897923;29;45394;-56
2021/09/19 02:30:54;;;;;;;;;10.50;9.75;;;;;20.17;66.69;100808.03;4897700;29;45380;-55
2021/09/19 02:33:20;;;;;;;;;10.00;8.75;;;;;20.11;66.65;100810.47;4893825;29;45379;-55
2021/09/19 02:35:46;;;;;;;;;9.00;8.75;;;;;20.08;67.25;100811.59;4898172;29;45205;-60
2021/09/19 02:38:12;;;;;;;;;9.50;9.25;;;;;20.11;66.76;100813.97;4893688;29;45340;-54
2021/09/19 02:40:37;;;;;;;;;8.00;7.75;;;;;20.15;67.00;100814.53;4895024;29;45498;-56
2021/09/19 02:43:03;;;;;;;;;9.00;9.00;;;;;20.18;67.05;100815.06;4894747;29;46119;-56
2021/09/19 02:45:29;;;;;;;;;11.50;8.75;;;;;20.19;67.24;100816.72;4895208;29;45538;-56
2021/09/19 02:47:55;;;;;;;;;10.25;8.75;;;;;20.21;66.79;100808.53;4896616;29;45174;-56
2021/09/19 02:50:23;;;;;;;;;10.25;10.25;;;;;20.19;67.27;100813.22;4881777;29;45295;-55
2021/09/19 02:52:49;;;;;;;;;11.75;10.75;;;;;20.14;67.35;100805.63;4893993;29;45550;-54
2021/09/19 02:55:19;;;;;;;;;10.75;8.00;;;;;20.15;67.42;100807.34;4896656;29;45435;-55
2021/09/19 02:57:45;;;;;;;;;10.25;10.25;;;;;20.13;67.24;100801.28;4895642;29;45314;-56
2021/09/19 03:00:14;;;;;;;;;11.50;10.00;;;;;20.12;67.09;100804.94;4897255;29;45313;-55
2021/09/19 03:02:40;;;;;;;;;12.25;10.50;;;;;20.12;67.58;100793.41;4895137;29;45291;-55
2021/09/19 03:05:07;;;;;;;;;10.50;9.50;;;;;20.11;67.34;100797.91;4895968;29;45395;-55
2021/09/19 03:07:32;;;;;;;;;11.75;11.25;;;;;20.10;67.76;100795.41;4897081;29;45399;-55
2021/09/19 03:09:58;;;;;;;;;12.75;12.00;;;;;20.08;67.73;100792.88;4885016;29;45450;-55
2021/09/19 03:12:24;;;;;;;;;14.00;13.00;;;;;20.05;67.72;100799.34;4893293;29;45336;-55
2021/09/19 03:14:50;;;;;;;;;12.50;10.50;;;;;20.01;67.88;100783.78;4893366;29;45740;-56
2021/09/19 03:17:15;;;;;;;;;11.25;11.00;;;;;20.00;68.11;100782.94;4895853;29;45262;-56
2021/09/19 03:19:41;;;;;;;;;21.25;14.25;;;;;20.03;67.15;100781.78;4896902;29;45548;-56
2021/09/19 03:22:06;;;;;;;;;14.75;14.00;;;;;20.04;67.23;100789.66;4894841;29;46004;-56
2021/09/19 03:24:32;;;;;;;;;12.75;11.50;;;;;20.04;67.15;100786.13;4894060;29;45367;-55
2021/09/19 03:26:58;;;;;;;;;14.75;13.75;;;;;20.06;67.16;100797.53;4896011;29;45571;-56
2021/09/19 03:29:23;;;;;;;;;11.75;10.75;;;;;20.04;66.83;100797.69;4895097;29;45428;-55
2021/09/19 03:31:49;;;;;;;;;14.75;14.00;;;;;20.01;67.43;100789.97;4895917;29;46031;-54
2021/09/19 03:34:14;;;;;;;;;12.25;12.00;;;;;19.99;67.26;100793.78;4894147;29;45479;-56
2021/09/19 03:36:40;;;;;;;;;12.25;12.25;;;;;19.99;67.01;100791.97;4895724;29;45494;-56
2021/09/19 03:39:06;;;;;;;;;12.00;12.00;;;;;19.98;66.86;100795.59;4897921;29;45452;-55
2021/09/19 03:41:32;;;;;;;;;13.00;12.00;;;;;19.96;67.23;100796.75;4892887;29;45302;-56
2021/09/19 03:43:58;;;;;;;;;14.75;12.25;;;;;19.96;66.82;100788.72;4896572;29;45314;-56
2021/09/19 03:46:25;;;;;;;;;8.50;8.50;;;;;19.96;66.79;100794.91;4893190;29;45177;-56
2021/09/19 03:48:51;;;;;;;;;10.00;10.00;;;;;19.94;65.80;100793.41;4893507;29;45456;-57
2021/09/19 03:51:17;;;;;;;;;10.00;8.00;;;;;19.89;65.08;100790.31;4894652;29;46121;-55
2021/09/19 03:53:42;;;;;;;;;9.00;8.25;;;;;19.85;65.37;100799.66;4895033;29;45392;-54
2021/09/19 03:56:08;;;;;;;;;11.25;11.25;;;;;19.83;65.12;100804.28;4896123;29;45349;-56
2021/09/19 03:58:34;;;;;;;;;12.50;11.50;;;;;19.81;64.26;100801.75;4895018;28;45373;-54
2021/09/19 04:00:59;;;;;;;;;12.00;10.50;;;;;19.79;63.72;100809.09;4893996;29;45352;-57
2021/09/19 04:03:25;;;;;;;;;12.25;11.75;;;;;19.74;63.65;100806.00;4894034;28;45290;-56
2021/09/19 04:05:50;;;;;;;;;11.25;11.25;;;;;19.67;63.41;100797.78;4895686;29;45437;-55
2021/09/19 04:08:15;;;;;;;;;12.50;9.50;;;;;19.61;63.40;100798.34;4896137;29;45401;-55
2021/09/19 04:10:41;;;;;;;;;14.25;12.50;;;;;19.60;62.90;100801.19;4894771;29;45664;-55
2021/09/19 04:13:06;;;;;;;;;13.75;12.75;;;;;19.57;62.87;100796.94;4892759;29;45419;-54
2021/09/19 04:15:32;;;;;;;;;13.00;12.50;;;;;19.53;63.52;100790.22;4892702;29;45462;-57
2021/09/19 04:17:57;;;;;;;;;14.00;11.25;;;;;19.51;63.13;100801.03;4894822;29;45196;-55
2021/09/19 04:20:23;;;;;;;;;18.75;16.00;;;;;19.45;62.81;100788.25;4894690;29;45440;-56
2021/09/19 04:22:49;;;;;;;;;12.00;12.00;;;;;19.38;62.71;100789.00;4896076;28;45241;-55
2021/09/19 04:25:15;;;;;;;;;19.25;18.75;;;;;19.34;62.62;100796.44;4898072;29;45307;-53
2021/09/19 04:27:40;;;;;;;;;14.25;10.25;;;;;19.28;62.93;100799.72;4898298;29;45353;-54
2021/09/19 04:30:07;;;;;;;;;13.00;10.50;;;;;19.25;63.26;100805.34;4899708;29;45299;-55
2021/09/19 04:32:34;;;;;;;;;14.00;13.50;;;;;19.23;63.28;100807.31;4899350;29;45555;-56
2021/09/19 04:34:59;;;;;;;;;13.50;11.75;;;;;19.21;62.95;100809.31;4897182;29;45456;-56
2021/09/19 04:37:25;;;;;;;;;13.00;13.00;;;;;19.21;62.95;100818.16;4898203;29;45490;-56
2021/09/19 04:39:50;;;;;;;;;11.00;10.25;;;;;19.20;62.72;100818.31;4893868;29;45424;-55
2021/09/19 04:42:16;;;;;;;;;15.50;13.25;;;;;19.19;62.72;100809.41;4898889;29;45488;-56
2021/09/19 04:44:42;;;;;;;;;14.25;12.75;;;;;19.17;62.84;100814.06;4899485;29;45449;-55
2021/09/19 04:47:08;;;;;;;;;14.25;12.50;;;;;19.12;63.26;100811.00;4896056;29;45214;-55
2021/09/19 04:49:34;;;;;;;;;13.50;11.75;;;;;19.06;62.74;100808.06;4899111;29;45274;-55
2021/09/19 04:52:00;;;;;;;;;10.25;10.25;;;;;19.00;63.36;100805.97;4899266;29;45412;-55
2021/09/19 04:54:26;;;;;;;;;12.00;12.00;;;;;19.00;63.19;100816.66;4895177;29;45299;-55
2021/09/19 04:56:53;;;;;;;;;13.00;13.00;;;;;18.99;62.93;100826.50;4897507;29;45188;-56
2021/09/19 04:59:19;;;;;;;;;11.00;10.00;;;;;18.99;63.24;100833.66;4895918;29;45533;-53
2021/09/19 05:01:44;;;;;;;;;15.00;13.25;;;;;18.95;62.84;100835.75;4896749;29;45342;-55
2021/09/19 05:04:10;;;;;;;;;14.00;13.75;;;;;18.91;63.46;100835.22;4897651;29;45437;-53
2021/09/19 05:06:35;;;;;;;;;13.25;12.50;;;;;18.88;63.47;100837.31;4897957;29;45421;-55
2021/09/19 05:09:01;;;;;;;;;13.75;10.75;;;;;18.86;63.84;100836.59;4898175;29;45923;-55
2021/09/19 05:11:26;;;;;;;;;15.75;12.00;;;;;18.83;63.22;100827.06;4897198;29;45276;-56
2021/09/19 05:13:52;;;;;;;;;14.00;13.50;;;;;18.80;63.55;100830.03;4894671;29;45658;-53
2021/09/19 05:16:18;;;;;;;;;11.75;11.25;;;;;18.82;63.56;100837.91;4896397;29;45472;-52
2021/09/19 05:18:43;;;;;;;;;13.00;12.00;;;;;18.80;63.80;100837.16;4896746;29;45315;-55
2021/09/19 05:21:09;;;;;;;;;14.50;13.25;;;;;18.79;63.74;100824.81;4897217;29;45260;-54
2021/09/19 05:23:34;;;;;;;;;15.50;13.25;;;;;18.78;63.68;100829.31;4896209;29;45427;-53
2021/09/19 05:26:00;;;;;;;;;14.75;12.75;;;;;18.78;63.29;100828.47;4896687;28;45483;-52
2021/09/19 05:28:25;;;;;;;;;17.25;14.00;;;;;18.77;63.82;100826.78;4894843;29;45524;-54
2021/09/19 05:30:51;;;;;;;;;11.50;11.25;;;;;18.76;63.42;100836.63;4899942;29;45229;-54
2021/09/19 05:33:18;;;;;;;;;17.75;14.25;;;;;18.75;63.33;100823.44;4897413;29;45281;-55
2021/09/19 05:35:43;;;;;;;;;15.50;13.00;;;;;18.71;63.65;100830.84;4898961;29;45683;-52
2021/09/19 05:38:09;;;;;;;;;15.75;13.75;;;;;18.70;63.22;100831.84;4894999;29;45460;-52
2021/09/19 05:40:35;;;;;;;;;13.75;12.75;;;;;18.71;63.43;100838.03;4898507;29;45483;-54
2021/09/19 05:43:02;;;;;;;;;12.50;9.75;;;;;18.73;63.40;100836.91;4894653;29;45472;-54
2021/09/19 05:45:28;;;;;;;;;11.75;11.25;;;;;18.72;63.27;100837.88;4895130;29;45538;-55
2021/09/19 05:47:55;;;;;;;;;16.25;14.50;;;;;18.73;63.06;100841.41;4895936;29;46276;-51
2021/09/19 05:50:21;;;;;;;;;12.00;12.00;;;;;18.76;63.44;100835.78;4896577;29;45229;-52
2021/09/19 05:52:46;;;;;;;;;13.00;11.25;;;;;18.75;63.00;100856.28;4896723;28;45499;-50
2021/09/19 05:55:12;;;;;;;;;23.25;21.50;;;;;18.74;62.95;100851.09;4896596;29;45222;-53
2021/09/19 05:57:37;;;;;;;;;14.25;14.00;;;;;18.70;63.34;100845.19;4897845;29;45547;-54
2021/09/19 06:00:05;;;;;;;;;15.75;13.75;;;;;18.72;62.97;100853.88;4896683;29;45329;-54
2021/09/19 06:02:30;;;;;;;;;15.50;13.25;;;;;18.72;63.00;100861.88;4894776;29;45443;-55
2021/09/19 06:04:56;;;;;;;;;15.25;14.25;;;;;18.74;63.29;100857.28;4898219;29;45288;-55
2021/09/19 06:07:21;;;;;;;;;12.25;11.25;;;;;18.76;63.10;100857.97;4894667;29;45300;-53
2021/09/19 06:09:47;;;;;;;;;11.00;10.00;;;;;18.73;63.10;100858.28;4895523;29;45370;-51
2021/09/19 06:12:12;;;;;;;;;18.75;18.25;;;;;18.73;63.07;100865.44;4896093;29;45327;-55
2021/09/19 06:14:38;;;;;;;;;15.50;14.25;;;;;18.71;62.96;100859.38;4895486;29;45288;-53
2021/09/19 06:17:03;;;;;;;;;12.00;12.00;;;;;18.71;63.11;100870.03;4896214;29;45622;-54
2021/09/19 06:19:29;;;;;;;;;13.25;12.50;;;;;18.68;63.38;100869.34;4898429;29;45328;-52
2021/09/19 06:21:58;;;;;;;;;13.75;13.75;;;;;18.67;63.02;100867.66;4896628;29;45302;-55
2021/09/19 06:24:25;;;;;;;;;13.25;11.75;;;;;18.68;63.23;100868.50;4896183;29;45499;-53
2021/09/19 06:26:50;;;;;;;;;13.75;13.00;;;;;18.66;63.01;100862.47;4894106;29;45594;-53
2021/09/19 06:29:15;;;;;;;;;10.75;10.00;;;;;18.67;63.29;100867.66;4897404;29;45460;-54
2021/09/19 06:31:41;;;;;;;;;15.50;13.00;;;;;18.69;63.21;100871.03;4893729;29;45573;-53
2021/09/19 06:34:06;;;;;;;;;16.75;13.25;;;;;18.74;63.35;100878.63;4894830;29;45433;-54
2021/09/19 06:36:32;;;;;;;;;13.75;12.75;;;;;18.79;62.57;100878.19;4895184;29;46252;-54
2021/09/19 06:38:57;;;;;;;;;15.25;15.25;;;;;18.78;62.61;100873.84;4896444;29;45392;-55
2021/09/19 06:41:23;;;;;;;;;12.75;12.25;;;;;18.80;62.99;100870.06;4896394;29;45380;-53
2021/09/19 06:43:48;;;;;;;;;16.00;12.50;;;;;18.81;62.36;100871.75;4895346;29;45432;-53
2021/09/19 06:46:14;;;;;;;;;13.50;13.25;;;;;18.85;62.77;100866.97;4893697;29;45958;-55
2021/09/19 06:48:39;;;;;;;;;17.50;14.25;;;;;18.88;62.30;100870.22;4895180;29;45430;-54
2021/09/19 06:51:05;;;;;;;;;15.00;13.25;;;;;18.91;62.07;100861.91;4895750;29;45232;-55
2021/09/19 06:53:30;;;;;;;;;14.75;13.25;;;;;18.91;62.58;100866.41;4896336;29;45245;-55
2021/09/19 06:55:56;;;;;;;;;18.75;15.50;;;;;18.90;62.41;100870.91;4897584;29;45494;-54
2021/09/19 06:58:21;;;;;;;;;15.00;14.00;;;;;18.93;62.34;100883.13;4896162;29;45265;-52
2021/09/19 07:00:47;;;;;;;;;20.00;15.50;;;;;18.95;62.33;100883.81;4894684;29;45498;-55
2021/09/19 07:03:12;;;;;;;;;20.00;16.50;;;;;19.00;62.31;100889.56;4895433;29;45232;-53
2021/09/19 07:05:38;;;;;;;;;15.75;14.25;;;;;19.07;62.42;100884.50;4896166;29;46611;-54
2021/09/19 07:08:04;;;;;;;;;18.75;16.25;;;;;19.14;62.08;100890.97;4896500;29;45398;-55
2021/09/19 07:10:29;;;;;;;;;14.25;14.25;;;;;19.19;61.26;100888.69;4893652;28;45279;-58
2021/09/19 07:12:55;;;;;;;;;17.25;16.25;;;;;19.21;60.81;100889.41;4897570;28;45310;-58
2021/09/19 07:15:20;;;;;;;;;17.00;15.50;;;;;19.20;60.74;100891.25;4898979;29;45766;-57
2021/09/19 07:17:46;;;;;;;;;16.00;14.50;;;;;19.25;61.12;100897.00;4899195;29;45253;-58
2021/09/19 07:20:11;;;;;;;;;13.25;12.75;;;;;19.25;61.24;100905.00;4878355;29;45427;-58
2021/09/19 07:22:40;;;;;;;;;13.00;11.50;;;;;19.29;60.91;100908.25;4895457;29;45586;-58
2021/09/19 07:25:06;;;;;;;;;15.50;13.75;;;;;19.32;61.16;100899.09;4894005;29;45372;-58
2021/09/19 07:27:32;;;;;;;;;16.50;14.25;;;;;19.36;60.76;100909.38;4895009;29;45264;-58
2021/09/19 07:29:58;;;;;;;;;20.00;15.25;;;;;19.42;60.66;100918.59;4894826;29;45520;-58
2021/09/19 07:32:23;;;;;;;;;14.75;14.50;;;;;19.38;60.37;100912.72;4895470;29;45394;-58
2021/09/19 07:34:49;;;;;;;;;17.50;15.75;;;;;19.37;60.39;100919.06;4897723;29;46133;-57
2021/09/19 07:37:17;;;;;;;;;17.50;16.75;;;;;19.39;60.13;100919.75;4894928;29;45260;-58
2021/09/19 07:39:42;;;;;;;;;16.75;12.00;;;;;19.36;60.32;100913.88;4897840;29;45382;-52
2021/09/19 07:42:08;;;;;;;;;14.50;13.25;;;;;19.32;60.68;100917.78;4895749;29;45363;-59
2021/09/19 07:44:35;;;;;;;;;11.00;11.00;;;;;19.32;60.35;100925.81;4893871;28;46419;-58
2021/09/19 07:47:01;;;;;;;;;16.50;13.75;;;;;19.30;60.56;100923.28;4897103;29;45442;-58
2021/09/19 07:49:28;;;;;;;;;15.75;15.75;;;;;19.30;60.40;100930.44;4893882;29;45165;-58
2021/09/19 07:51:55;;;;;;;;;19.25;16.75;;;;;19.29;60.40;100937.63;4898303;29;45526;-59
2021/09/19 07:54:21;;;;;;;;;13.25;12.25;;;;;19.28;60.87;100940.44;4895760;29;45428;-59
2021/09/19 07:56:46;;;;;;;;;14.75;13.00;;;;;19.28;61.41;100943.97;4898208;29;45418;-59
2021/09/19 07:59:12;;;;;;;;;17.00;14.75;;;;;19.31;61.42;100943.66;4898137;29;45439;-59
2021/09/19 08:01:37;;;;;;;;;19.75;17.00;;;;;19.30;60.87;100941.97;4901701;29;45451;-55
2021/09/19 08:04:03;;;;;;;;;17.00;15.75;;;;;19.29;60.87;100947.47;4899294;29;45455;-57
2021/09/19 08:06:29;;;;;;;;;13.75;13.00;;;;;19.29;61.23;100956.31;4899390;29;45236;-57
2021/09/19 08:08:54;;;;;;;;;17.00;15.25;;;;;19.27;61.22;100952.94;4899386;29;45290;-57
2021/09/19 08:11:20;;;;;;;;;15.00;13.00;;;;;19.32;61.28;100953.34;4898980;29;45392;-60
2021/09/19 08:13:47;;;;;;;;;13.75;13.75;;;;;19.40;61.45;100963.34;4895801;29;45313;-60
2021/09/19 08:16:15;;;;;;;;;15.50;14.00;;;;;19.48;61.13;100961.63;4896954;29;45406;-60
2021/09/19 08:18:40;;;;;;;;;34.50;30.00;;;;;19.55;60.91;100964.56;4898589;28;45319;-60
2021/09/19 08:21:06;;;;;;;;;17.75;15.00;;;;;19.62;60.23;100964.88;4899069;29;45280;-59
2021/09/19 08:23:32;;;;;;;;;16.50;14.25;;;;;19.69;60.46;100963.31;4897355;29;45647;-60
2021/09/19 08:25:57;;;;;;;;;15.00;14.50;;;;;19.71;60.20;100958.66;4898081;29;45550;-60
2021/09/19 08:28:23;;;;;;;;;16.25;14.50;;;;;19.73;59.78;100965.53;4896192;29;45496;-60
2021/09/19 08:30:49;;;;;;;;;14.75;13.75;;;;;19.79;60.10;100962.31;4895020;28;45335;-60
2021/09/19 08:33:15;;;;;;;;;15.25;14.75;;;;;19.86;59.68;100967.91;4897703;29;45497;-60
2021/09/19 08:35:40;;;;;;;;;17.75;15.00;;;;;19.93;59.70;100970.84;4895950;29;45439;-60
2021/09/19 08:38:07;;;;;;;;;17.25;14.75;;;;;20.01;60.02;100979.00;4896641;29;45452;-60
2021/09/19 08:40:33;;;;;;;;;16.50;13.00;;;;;20.07;59.48;100981.09;4898100;29;45219;-60
2021/09/19 08:42:58;;;;;;;;;13.00;12.00;;;;;20.14;59.35;100978.66;4897983;29;45429;-60
2021/09/19 08:45:24;;;;;;;;;14.25;14.00;;;;;20.22;58.79;100994.78;4897154;29;45477;-60
2021/09/19 08:47:51;;;;;;;;;14.00;12.25;;;;;20.22;58.77;100993.00;4896825;29;45468;-60
2021/09/19 08:50:18;;;;;;;;;13.75;12.75;;;;;20.22;58.58;100997.47;4896106;29;45462;-60
2021/09/19 08:52:45;;;;;;;;;16.75;14.00;;;;;20.23;58.88;101000.03;4895497;29;45408;-60
2021/09/19 08:55:11;;;;;;;;;16.25;11.00;;;;;20.27;58.54;100996.06;4895286;29;45213;-60
2021/09/19 08:57:36;;;;;;;;;14.75;13.00;;;;;20.29;58.64;100994.06;4896853;29;45408;-59
2021/09/19 09:00:16;;;;;;;;;21.75;18.25;;;;;20.32;58.80;100992.94;4895474;29;45506;-62
2021/09/19 09:02:56;;;;;;;;;15.75;12.25;;;;;20.31;58.77;100984.09;4903291;29;45510;-75
2021/09/19 09:05:27;;;;;;;;;14.00;12.50;;;;;20.36;59.02;100988.97;4897518;29;45387;-64
2021/09/19 09:07:54;;;;;;;;;8.75;7.50;;;;;20.40;59.02;100994.88;4895690;29;45329;-61
2021/09/19 09:10:33;;;;;;;;;15.75;14.75;;;;;20.42;59.35;100993.72;4896458;29;45191;-64
2021/09/19 09:13:23;;;;;;;;;12.50;11.25;;;;;20.52;59.25;100996.38;4895589;29;45387;-62
2021/09/19 09:15:51;;;;;;;;;14.75;14.00;;;;;20.63;58.87;101006.91;4896252;29;45421;-63
2021/09/19 09:18:40;;;;;;;;;14.50;14.50;;;;;20.66;58.21;101013.78;4898525;28;45360;-63
2021/09/19 09:21:11;;;;;;;;;12.50;12.00;;;;;20.68;58.65;101009.13;4896608;29;45256;-62
2021/09/19 09:23:36;;;;;;;;;13.00;12.00;;;;;20.61;58.42;101017.75;4896452;29;45949;-62
2021/09/19 09:26:08;;;;;;;;;14.50;12.50;;;;;20.60;58.27;101009.88;4895700;29;45485;-64
2021/09/19 09:28:56;;;;;;;;;15.25;13.50;;;;;20.58;58.70;101014.53;4895641;29;45526;-59
2021/09/19 09:31:38;;;;;;;;;13.75;13.25;;;;;20.56;58.26;101017.38;4897640;29;45321;-62
2021/09/19 09:34:05;;;;;;;;;15.00;15.00;;;;;20.55;58.50;101026.38;4896645;28;46330;-60
2021/09/19 09:36:37;;;;;;;;;13.25;12.50;;;;;20.56;58.43;101024.56;4894789;29;45256;-62
2021/09/19 09:39:21;;;;;;;;;18.00;15.25;;;;;20.58;58.67;101022.56;4896603;29;46419;-62
2021/09/19 09:41:47;;;;;;;;;19.00;18.00;;;;;20.65;58.32;101025.50;4896458;29;45248;-67
2021/09/19 09:44:28;;;;;;;;;17.00;15.00;;;;;20.65;58.49;101023.66;4895201;29;46071;-59
2021/09/19 09:46:54;;;;;;;;;18.25;14.50;;;;;20.69;58.48;101018.84;4891559;29;46295;-68
2021/09/19 09:49:37;;;;;;;;;15.75;15.25;;;;;20.71;58.68;101023.06;4887220;29;45415;-62
2021/09/19 09:52:12;;;;;;;;;16.75;15.25;;;;;20.70;58.93;101015.19;4900042;29;45461;-61
2021/09/19 09:54:47;;;;;;;;;13.00;13.00;;;;;20.75;58.72;101021.75;4895225;29;45544;-61
2021/09/19 09:57:31;;;;;;;;;15.75;14.25;;;;;20.87;58.48;101023.25;4896777;29;45460;-60
2021/09/19 09:59:59;;;;;;;;;15.25;15.25;;;;;20.99;58.17;101028.38;4894644;29;45477;-60
2021/09/19 10:02:26;;;;;;;;;28.25;27.25;;;;;20.99;57.96;101028.38;4894991;29;45463;-60
2021/09/19 10:04:54;;;;;;;;;17.75;17.50;;;;;21.02;58.39;101030.78;4893575;29;46743;-62
2021/09/19 10:07:20;;;;;;;;;15.25;14.75;;;;;21.09;57.58;101032.69;4895271;29;45698;-60
2021/09/19 10:09:46;;;;;;;;;18.25;14.75;;;;;21.18;57.75;101033.63;4895570;29;45273;-60
2021/09/19 10:12:12;;;;;;;;;18.75;16.00;;;;;21.30;57.31;101037.78;4893632;29;45232;-61
2021/09/19 10:14:38;;;;;;;;;15.75;15.75;;;;;21.31;57.34;101036.78;4894715;29;45645;-61
2021/09/19 10:17:04;;;;;;;;;17.75;15.25;;;;;21.35;57.28;101042.69;4898053;28;45538;-60
2021/09/19 10:19:30;;;;;;;;;19.25;15.25;;;;;21.42;57.16;101041.91;4894885;29;45341;-60
2021/09/19 10:21:58;;;;;;;;;18.00;18.00;;;;;21.46;57.49;101037.06;4893792;29;45446;-61
2021/09/19 10:24:25;;;;;;;;;18.50;17.25;;;;;21.49;56.55;101043.94;4895497;29;45351;-72
2021/09/19 10:26:56;;;;;;;;;17.50;16.75;;;;;21.47;56.50;101038.75;4901598;29;45428;-66
2021/09/19 10:29:27;;;;;;;;;16.75;14.00;;;;;21.56;56.58;101028.94;4904500;29;45319;-65
2021/09/19 10:31:57;;;;;;;;;19.25;16.50;;;;;21.63;56.48;101030.00;4904290;29;45464;-74
2021/09/19 10:34:32;;;;;;;;;19.25;15.00;;;;;21.72;56.19;101032.63;4894647;29;45454;-67
2021/09/19 10:36:58;;;;;;;;;17.50;17.25;;;;;21.80;55.93;101026.44;4899553;29;45523;-68
2021/09/19 10:39:38;;;;;;;;;21.75;17.25;;;;;21.86;56.17;101028.50;4901863;29;45413;-73
2021/09/19 10:42:04;;;;;;;;;15.50;14.25;;;;;21.92;55.63;101019.84;4891311;29;45658;-67
2021/09/19 10:45:07;;;;;;;;;15.25;14.00;;;;;22.06;55.61;101026.47;4894485;29;45337;-72
2021/09/19 10:47:41;;;;;;;;;16.25;14.00;;;;;22.22;55.78;101031.13;4885203;29;45288;-60
2021/09/19 10:50:31;;;;;;;;;17.75;17.00;;;;;22.35;55.27;101036.03;4893488;29;45269;-69
2021/09/19 10:53:03;;;;;;;;;16.00;15.75;;;;;22.47;55.24;101027.56;4900250;28;45513;-68
2021/09/19 10:55:34;;;;;;;;;16.75;15.00;;;;;22.56;55.06;101029.25;4903925;29;45300;-63
2021/09/19 10:58:11;;;;;;;;;17.75;14.50;;;;;22.57;54.53;101025.56;4897156;29;45326;-63
2021/09/19 11:00:40;;;;;;;;;20.25;17.75;;;;;22.59;54.18;101038.84;4895971;28;45531;-65
2021/09/19 11:03:16;;;;;;;;;15.75;14.25;;;;;22.60;54.14;101037.03;4898530;29;45468;-57
2021/09/19 11:05:43;;;;;;;;;18.00;16.00;;;;;22.64;53.98;101039.19;4895283;29;45424;-58
2021/09/19 11:08:13;;;;;;;;;15.50;15.25;;;;;22.68;54.18;101029.84;4894925;29;45243;-58
2021/09/19 11:10:45;;;;;;;;;15.50;14.25;;;;;22.73;54.30;101026.63;4898227;29;45573;-60
2021/09/19 11:13:21;;;;;;;;;15.00;15.00;;;;;22.76;53.65;101023.66;4893358;29;45317;-61